createdAt,value
2023-05-09T00:01:59.756Z,31.60
2023-05-09T00:04:26.244Z,30.77
2023-05-09T00:06:52.629Z,29.33
2023-05-09T00:09:19.076Z,31.10
2023-05-09T00:11:45.561Z,30.77
2023-05-09T00:14:14.849Z,32.85
2023-05-09T00:16:41.342Z,30.60
2023-05-09T00:19:07.779Z,32.47
2023-05-09T00:21:34.249Z,32.55
2023-05-09T00:24:01.089Z,32.55
2023-05-09T00:26:27.775Z,32.95
2023-05-09T00:28:54.189Z,34.10
2023-05-09T00:31:21.048Z,32.42
2023-05-09T00:33:47.464Z,33.53
2023-05-09T00:36:13.836Z,30.25
2023-05-09T00:38:40.230Z,30.50
2023-05-09T00:41:06.634Z,31.23
2023-05-09T00:43:33.093Z,32.55
2023-05-09T00:45:59.538Z,30.27
2023-05-09T00:48:26.153Z,32.13
2023-05-09T00:50:53.141Z,33.33
2023-05-09T00:53:20.700Z,31.95
2023-05-09T00:55:47.274Z,31.05
2023-05-09T00:58:13.950Z,30.20
2023-05-09T01:00:40.665Z,30.67
2023-05-09T01:03:07.555Z,31.48
2023-05-09T01:05:46.121Z,29.60
2023-05-09T01:08:36.419Z,32.40
2023-05-09T01:11:45.998Z,33.53
2023-05-09T01:14:23.152Z,30.55
2023-05-09T01:17:08.980Z,31.23
2023-05-09T01:19:57.440Z,31.90
2023-05-09T01:22:32.029Z,33.22
2023-05-09T01:25:21.720Z,32.22
2023-05-09T01:28:11.316Z,30.30
2023-05-09T01:30:38.125Z,30.75
2023-05-09T01:33:07.340Z,31.30
2023-05-09T01:35:36.378Z,32.63
2023-05-09T01:38:06.647Z,31.92
2023-05-09T01:40:33.690Z,30.75
2023-05-09T01:43:04.051Z,32.40
2023-05-09T01:45:31.457Z,31.65
2023-05-09T01:47:58.679Z,33.40
2023-05-09T01:50:25.315Z,32.22
2023-05-09T01:52:53.604Z,32.65
2023-05-09T01:55:21.569Z,32.33
2023-05-09T01:57:48.764Z,35.40
2023-05-09T02:00:15.429Z,32.88
2023-05-09T02:02:42.155Z,33.55
2023-05-09T02:05:09.830Z,31.60
2023-05-09T02:07:36.892Z,32.35
2023-05-09T02:10:04.841Z,33.63
2023-05-09T02:12:31.308Z,38.08
2023-05-09T02:14:57.806Z,32.70
2023-05-09T02:17:24.313Z,34.30
2023-05-09T02:19:50.790Z,33.60
2023-05-09T02:22:17.298Z,32.88
2023-05-09T02:24:45.111Z,35.45
2023-05-09T02:27:12.207Z,33.75
2023-05-09T02:29:49.091Z,33.72
2023-05-09T02:32:17.964Z,32.50
2023-05-09T02:34:45.348Z,33.72
2023-05-09T02:37:12.423Z,34.20
2023-05-09T02:39:38.854Z,34.05
2023-05-09T02:42:07.903Z,33.45
2023-05-09T02:44:34.680Z,32.78
2023-05-09T02:47:02.781Z,33.33
2023-05-09T02:49:32.465Z,33.58
2023-05-09T02:51:59.424Z,32.83
2023-05-09T02:54:25.891Z,34.67
2023-05-09T02:56:52.625Z,31.83
2023-05-09T02:59:20.110Z,29.88
2023-05-09T03:01:46.895Z,30.60
2023-05-09T03:04:13.468Z,32.75
2023-05-09T03:06:39.849Z,33.17
2023-05-09T03:09:07.256Z,32.47
2023-05-09T03:11:36.574Z,31.42
2023-05-09T03:14:03.730Z,32.30
2023-05-09T03:16:30.284Z,31.25
2023-05-09T03:18:57.171Z,32.28
2023-05-09T03:21:23.592Z,31.02
2023-05-09T03:23:50.050Z,30.38
2023-05-09T03:26:16.409Z,32.60
2023-05-09T03:28:42.800Z,30.67
2023-05-09T03:31:09.550Z,31.23
2023-05-09T03:33:35.982Z,29.98
2023-05-09T03:36:02.430Z,32.08
2023-05-09T03:38:28.811Z,29.85
2023-05-09T03:40:55.339Z,30.67
2023-05-09T03:43:21.769Z,30.88
2023-05-09T03:45:48.149Z,30.83
2023-05-09T03:48:14.589Z,29.20
2023-05-09T03:50:40.986Z,31.77
2023-05-09T03:53:07.423Z,31.33
2023-05-09T03:55:33.878Z,31.45
2023-05-09T03:58:00.330Z,29.65
2023-05-09T04:00:26.728Z,31.90
2023-05-09T04:02:53.650Z,29.90
2023-05-09T04:05:20.300Z,29.40
2023-05-09T04:07:46.921Z,29.98
2023-05-09T04:10:13.347Z,30.80
2023-05-09T04:12:39.822Z,30.05
2023-05-09T04:15:06.961Z,30.38
2023-05-09T04:17:33.477Z,30.50
2023-05-09T04:19:59.904Z,30.50
2023-05-09T04:22:26.313Z,29.52
2023-05-09T04:24:52.810Z,28.35
2023-05-09T04:27:19.480Z,28.77
2023-05-09T04:29:45.943Z,28.52
2023-05-09T04:32:12.393Z,29.05
2023-05-09T04:34:38.806Z,29.35
2023-05-09T04:37:05.539Z,28.60
2023-05-09T04:39:32.038Z,27.25
2023-05-09T04:41:58.496Z,27.35
2023-05-09T04:44:24.920Z,25.00
2023-05-09T04:46:51.399Z,26.23
2023-05-09T04:49:17.891Z,26.15
2023-05-09T04:51:44.323Z,24.45
2023-05-09T04:54:10.930Z,23.92
2023-05-09T04:56:37.302Z,25.35
2023-05-09T04:59:03.678Z,23.67
2023-05-09T05:01:30.881Z,23.90
2023-05-09T05:03:57.397Z,24.52
2023-05-09T05:06:23.827Z,22.55
2023-05-09T05:08:50.201Z,21.92
2023-05-09T05:11:17.908Z,23.30
2023-05-09T05:13:44.658Z,21.48
2023-05-09T05:16:11.132Z,22.02
2023-05-09T05:18:37.557Z,20.88
2023-05-09T05:21:03.938Z,21.00
2023-05-09T05:23:30.377Z,23.25
2023-05-09T05:25:56.918Z,21.10
2023-05-09T05:28:23.478Z,21.00
2023-05-09T05:30:49.915Z,20.10
2023-05-09T05:33:16.363Z,21.40
2023-05-09T05:35:42.757Z,20.10
2023-05-09T05:38:09.203Z,20.02
2023-05-09T05:40:35.590Z,21.33
2023-05-09T05:43:02.082Z,20.92
2023-05-09T05:45:30.245Z,20.15
2023-05-09T05:47:56.858Z,20.50
2023-05-09T05:50:23.268Z,20.70
2023-05-09T05:52:49.717Z,20.17
2023-05-09T05:55:16.525Z,19.63
2023-05-09T05:57:44.180Z,19.90
2023-05-09T06:00:11.538Z,20.88
2023-05-09T06:02:38.152Z,20.20
2023-05-09T06:05:05.950Z,19.30
2023-05-09T06:07:32.355Z,20.08
2023-05-09T06:09:58.763Z,18.73
2023-05-09T06:12:27.339Z,18.55
2023-05-09T06:14:54.502Z,19.27
2023-05-09T06:17:21.146Z,19.48
2023-05-09T06:19:47.539Z,18.20
2023-05-09T06:22:13.987Z,17.70
2023-05-09T06:24:40.424Z,19.50
2023-05-09T06:27:06.855Z,18.33
2023-05-09T06:29:33.291Z,18.75
2023-05-09T06:31:59.853Z,19.25
2023-05-09T06:34:26.344Z,18.80
2023-05-09T06:36:52.809Z,20.10
2023-05-09T06:39:19.549Z,18.83
2023-05-09T06:41:46.012Z,19.10
2023-05-09T06:44:12.366Z,21.20
2023-05-09T06:46:38.886Z,21.17
2023-05-09T06:49:06.056Z,20.83
2023-05-09T06:51:32.614Z,21.98
2023-05-09T06:53:59.014Z,21.60
2023-05-09T06:56:26.442Z,21.13
2023-05-09T06:58:52.923Z,22.00
2023-05-09T07:01:19.305Z,21.20
2023-05-09T07:03:47.514Z,21.95
2023-05-09T07:06:13.931Z,22.55
2023-05-09T07:08:40.491Z,23.05
2023-05-09T07:11:06.878Z,21.73
2023-05-09T07:13:33.317Z,21.45
2023-05-09T07:15:59.719Z,21.42
2023-05-09T07:18:26.155Z,21.02
2023-05-09T07:20:52.571Z,22.48
2023-05-09T07:23:19.025Z,20.20
2023-05-09T07:25:45.482Z,22.90
2023-05-09T07:28:12.713Z,19.70
2023-05-09T07:30:39.233Z,21.50
2023-05-09T07:33:06.727Z,22.63
2023-05-09T07:35:33.268Z,20.30
2023-05-09T07:37:59.645Z,20.17
2023-05-09T07:40:26.085Z,20.17
2023-05-09T07:42:54.934Z,21.48
2023-05-09T07:45:23.658Z,19.83
2023-05-09T07:47:50.628Z,21.23
2023-05-09T07:50:17.392Z,20.33
2023-05-09T07:52:43.925Z,20.27
2023-05-09T07:55:12.251Z,20.08
2023-05-09T07:57:39.835Z,20.45
2023-05-09T08:00:07.882Z,19.67
2023-05-09T08:02:34.392Z,19.40
2023-05-09T08:05:00.945Z,20.33
2023-05-09T08:07:27.393Z,19.63
2023-05-09T08:09:53.837Z,19.70
2023-05-09T08:12:20.243Z,19.48
2023-05-09T08:14:46.905Z,19.42
2023-05-09T08:17:13.332Z,22.08
2023-05-09T08:19:39.806Z,19.88
2023-05-09T08:22:06.246Z,19.83
2023-05-09T08:24:32.724Z,20.20
2023-05-09T08:26:59.878Z,19.65
2023-05-09T08:29:26.334Z,22.30
2023-05-09T08:31:52.939Z,18.20
2023-05-09T08:34:20.772Z,19.13
2023-05-09T08:36:47.175Z,18.02
2023-05-09T08:39:13.583Z,17.55
2023-05-09T08:41:40.094Z,18.15
2023-05-09T08:44:06.823Z,18.70
2023-05-09T08:46:37.143Z,17.65
2023-05-09T08:49:07.136Z,16.95
2023-05-09T08:51:34.440Z,16.38
2023-05-09T08:54:01.406Z,17.05
2023-05-09T08:56:29.022Z,17.23
2023-05-09T08:58:55.642Z,17.20
2023-05-09T09:01:23.497Z,17.90
2023-05-09T09:03:50.326Z,15.98
2023-05-09T09:06:17.504Z,15.90
2023-05-09T09:08:44.214Z,16.50
2023-05-09T09:11:13.787Z,15.55
2023-05-09T09:13:41.738Z,15.18
2023-05-09T09:16:16.642Z,15.98
2023-05-09T09:18:43.432Z,15.77
2023-05-09T09:21:10.610Z,15.00
2023-05-09T09:23:39.346Z,15.65
2023-05-09T09:26:05.754Z,13.77
2023-05-09T09:28:32.497Z,13.50
2023-05-09T09:30:58.878Z,14.30
2023-05-09T09:33:26.990Z,13.63
2023-05-09T09:35:54.806Z,15.85
2023-05-09T09:38:22.783Z,14.80
2023-05-09T09:40:52.118Z,13.38
2023-05-09T09:43:18.736Z,12.73
2023-05-09T09:45:49.042Z,12.50
2023-05-09T09:48:15.769Z,12.40
2023-05-09T09:50:42.461Z,11.95
2023-05-09T09:53:08.904Z,11.30
2023-05-09T09:55:35.747Z,12.77
2023-05-09T09:58:02.296Z,12.10
2023-05-09T10:00:28.799Z,12.15
2023-05-09T10:02:56.348Z,11.40
2023-05-09T10:05:28.404Z,10.48
2023-05-09T10:08:05.021Z,11.02
2023-05-09T10:10:33.722Z,11.05
2023-05-09T10:13:07.437Z,10.88
2023-05-09T10:15:49.353Z,10.80
2023-05-09T10:18:23.223Z,10.82
2023-05-09T10:20:50.168Z,11.18
2023-05-09T10:23:18.137Z,11.57
2023-05-09T10:25:47.560Z,11.18
2023-05-09T10:28:18.926Z,9.80
2023-05-09T10:31:03.845Z,10.77
2023-05-09T10:33:44.085Z,10.48
2023-05-09T10:36:10.977Z,11.30
2023-05-09T10:38:37.400Z,10.15
2023-05-09T10:41:04.126Z,11.25
2023-05-09T10:43:33.704Z,12.65
2023-05-09T10:46:01.640Z,10.95
2023-05-09T10:48:28.590Z,10.50
2023-05-09T10:50:55.649Z,10.68
2023-05-09T10:53:24.385Z,10.00
2023-05-09T10:55:59.039Z,10.43
2023-05-09T10:58:40.773Z,10.32
2023-05-09T11:01:07.484Z,10.23
2023-05-09T11:03:54.737Z,10.23
2023-05-09T11:06:49.308Z,9.77
2023-05-09T11:09:35.807Z,9.52
2023-05-09T11:12:04.865Z,9.05
2023-05-09T11:14:37.261Z,9.50
2023-05-09T11:17:04.561Z,8.85
2023-05-09T11:19:36.884Z,8.82
2023-05-09T11:22:13.920Z,8.27
2023-05-09T11:24:44.688Z,8.15
2023-05-09T11:27:24.553Z,8.50
2023-05-09T11:29:59.179Z,8.25
2023-05-09T11:32:32.277Z,9.43
2023-05-09T11:35:15.735Z,8.88
2023-05-09T11:37:55.021Z,9.30
2023-05-09T11:40:22.333Z,8.73
2023-05-09T11:42:51.038Z,8.52
2023-05-09T11:45:17.789Z,9.02
2023-05-09T11:47:45.804Z,9.50
2023-05-09T11:50:13.626Z,8.13
2023-05-09T11:52:40.818Z,9.15
2023-05-09T11:55:12.807Z,8.60
2023-05-09T11:57:41.291Z,8.82
2023-05-09T12:00:09.295Z,9.02
2023-05-09T12:02:36.538Z,8.50
2023-05-09T12:05:10.378Z,8.52
2023-05-09T12:07:38.028Z,8.90
2023-05-09T12:10:06.850Z,8.70
2023-05-09T12:12:37.491Z,9.07
2023-05-09T12:15:08.225Z,8.55
2023-05-09T12:17:35.505Z,8.70
2023-05-09T12:20:04.280Z,8.88
2023-05-09T12:22:30.982Z,8.00
2023-05-09T12:24:59.600Z,8.73
2023-05-09T12:27:28.262Z,8.98
2023-05-09T12:29:55.442Z,9.07
2023-05-09T12:32:21.994Z,9.18
2023-05-09T12:34:48.937Z,8.02
2023-05-09T12:37:17.307Z,7.82
2023-05-09T12:40:07.024Z,7.97
2023-05-09T12:42:35.409Z,7.55
2023-05-09T12:45:03.030Z,7.40
2023-05-09T12:47:31.001Z,8.15
2023-05-09T12:50:01.409Z,8.45
2023-05-09T12:52:46.930Z,7.72
2023-05-09T12:55:20.985Z,7.85
2023-05-09T12:57:58.303Z,8.10
2023-05-09T13:00:24.991Z,8.02
2023-05-09T13:02:52.758Z,7.25
2023-05-09T13:05:21.486Z,7.65
2023-05-09T13:07:50.140Z,8.43
2023-05-09T13:10:23.780Z,7.78
2023-05-09T13:12:51.456Z,8.95
2023-05-09T13:15:22.688Z,8.40
2023-05-09T13:17:52.692Z,8.32
2023-05-09T13:20:19.558Z,8.20
2023-05-09T13:22:46.192Z,7.88
2023-05-09T13:25:12.921Z,8.20
2023-05-09T13:27:39.407Z,7.93
2023-05-09T13:30:07.732Z,7.50
2023-05-09T13:32:34.692Z,7.65
2023-05-09T13:35:01.196Z,8.07
2023-05-09T13:37:28.058Z,8.40
2023-05-09T13:39:55.352Z,8.65
2023-05-09T13:42:21.870Z,7.90
2023-05-09T13:44:48.283Z,8.65
2023-05-09T13:47:14.663Z,7.85
2023-05-09T13:49:41.093Z,7.70
2023-05-09T13:52:08.260Z,8.43
2023-05-09T13:54:35.139Z,7.68
2023-05-09T13:57:03.510Z,8.20
2023-05-09T13:59:32.976Z,8.40
2023-05-09T14:02:00.394Z,8.55
2023-05-09T14:04:27.843Z,8.05
2023-05-09T14:06:58.705Z,7.22
2023-05-09T14:09:25.237Z,7.30
2023-05-09T14:11:52.825Z,6.95
2023-05-09T14:14:20.866Z,7.18
2023-05-09T14:16:47.793Z,7.80
2023-05-09T14:19:17.560Z,6.95
2023-05-09T14:21:44.745Z,6.60
2023-05-09T14:24:15.088Z,7.03
2023-05-09T14:26:42.354Z,7.03
2023-05-09T14:29:08.799Z,6.68
2023-05-09T14:31:35.253Z,6.57
2023-05-09T14:34:01.736Z,5.75
2023-05-09T14:36:28.795Z,6.80
2023-05-09T14:38:55.235Z,6.30
2023-05-09T14:41:22.218Z,5.75
2023-05-09T14:43:48.916Z,6.20
2023-05-09T14:46:15.555Z,5.45
2023-05-09T14:48:42.196Z,5.10
2023-05-09T14:51:08.661Z,5.35
2023-05-09T14:53:39.703Z,5.00
2023-05-09T14:56:06.870Z,4.72
2023-05-09T14:58:36.551Z,4.88
2023-05-09T15:01:04.175Z,4.95
2023-05-09T15:03:30.720Z,4.88
2023-05-09T15:05:58.611Z,5.43
2023-05-09T15:08:25.431Z,5.10
2023-05-09T15:10:51.846Z,5.78
2023-05-09T15:13:18.327Z,4.90
2023-05-09T15:15:44.848Z,5.28
2023-05-09T15:18:13.247Z,4.88
2023-05-09T15:20:39.836Z,5.90
2023-05-09T15:23:07.806Z,5.35
2023-05-09T15:25:34.508Z,5.78
2023-05-09T15:28:01.246Z,6.10
2023-05-09T15:30:27.770Z,5.20
2023-05-09T15:32:54.212Z,5.47
2023-05-09T15:35:20.774Z,5.45
2023-05-09T15:37:47.190Z,5.82
2023-05-09T15:40:13.904Z,5.50
2023-05-09T15:42:40.980Z,5.93
2023-05-09T15:45:08.126Z,4.65
2023-05-09T15:47:34.613Z,5.35
2023-05-09T15:50:01.039Z,5.13
2023-05-09T15:52:27.835Z,5.82
2023-05-09T15:54:55.253Z,5.22
2023-05-09T15:57:22.077Z,5.75
2023-05-09T15:59:48.517Z,5.28
2023-05-09T16:02:15.129Z,6.55
2023-05-09T16:04:42.481Z,6.00
2023-05-09T16:07:08.916Z,5.90
2023-05-09T16:09:35.377Z,6.55
2023-05-09T16:12:01.903Z,7.43
2023-05-09T16:14:28.361Z,7.20
2023-05-09T16:16:54.846Z,6.88
2023-05-09T16:19:21.705Z,8.30
2023-05-09T16:21:48.398Z,7.85
2023-05-09T16:24:14.840Z,8.63
2023-05-09T16:26:41.318Z,8.20
2023-05-09T16:29:07.775Z,8.40
2023-05-09T16:31:35.638Z,8.30
2023-05-09T16:34:02.919Z,8.45
2023-05-09T16:36:29.897Z,8.63
2023-05-09T16:38:56.401Z,8.50
2023-05-09T16:41:22.888Z,8.82
2023-05-09T16:43:49.344Z,8.73
2023-05-09T16:46:16.168Z,8.90
2023-05-09T16:48:42.657Z,8.52
2023-05-09T16:51:09.188Z,9.13
2023-05-09T16:53:36.280Z,8.23
2023-05-09T16:56:03.908Z,8.32
2023-05-09T16:58:30.435Z,7.90
2023-05-09T17:00:57.036Z,8.13
2023-05-09T17:03:23.861Z,9.00
2023-05-09T17:05:51.139Z,8.57
2023-05-09T17:08:17.508Z,8.20
2023-05-09T17:10:43.934Z,7.68
2023-05-09T17:13:10.447Z,8.40
2023-05-09T17:15:38.343Z,8.20
2023-05-09T17:18:05.085Z,8.02
2023-05-09T17:20:31.750Z,7.60
2023-05-09T17:22:58.178Z,6.50
2023-05-09T17:25:24.553Z,7.03
2023-05-09T17:27:50.955Z,7.22
2023-05-09T17:30:18.803Z,7.40
2023-05-09T17:32:46.734Z,7.82
2023-05-09T17:35:13.792Z,8.02
2023-05-09T17:37:40.416Z,7.82
2023-05-09T17:40:07.814Z,7.47
2023-05-09T17:42:34.294Z,7.60
2023-05-09T17:45:00.844Z,6.88
2023-05-09T17:47:28.617Z,7.70
2023-05-09T17:49:55.229Z,7.65
2023-05-09T17:52:22.111Z,6.97
2023-05-09T17:54:48.698Z,6.55
2023-05-09T17:57:15.134Z,6.95
2023-05-09T17:59:41.743Z,6.78
2023-05-09T18:02:08.240Z,6.97
2023-05-09T18:04:34.768Z,7.05
2023-05-09T18:07:01.509Z,6.43
2023-05-09T18:09:28.112Z,7.22
2023-05-09T18:11:54.532Z,7.20
2023-05-09T18:14:20.911Z,7.03
2023-05-09T18:16:47.322Z,6.75
2023-05-09T18:19:13.749Z,7.22
2023-05-09T18:21:40.484Z,6.80
2023-05-09T18:24:09.058Z,6.97
2023-05-09T18:26:35.477Z,7.50
2023-05-09T18:29:02.066Z,7.07
2023-05-09T18:31:28.511Z,6.70
2023-05-09T18:33:54.985Z,6.30
2023-05-09T18:36:22.687Z,5.40
2023-05-09T18:38:49.124Z,4.40
2023-05-09T18:41:16.949Z,4.50
2023-05-09T18:43:46.460Z,4.38
2023-05-09T18:46:17.177Z,5.00
2023-05-09T18:48:45.095Z,4.25
2023-05-09T18:51:11.895Z,4.22
2023-05-09T18:53:38.814Z,3.50
2023-05-09T18:56:05.302Z,3.60
2023-05-09T18:58:32.394Z,3.38
2023-05-09T19:00:58.953Z,3.45
2023-05-09T19:03:25.472Z,3.05
2023-05-09T19:05:51.867Z,3.55
2023-05-09T19:08:18.262Z,2.92
2023-05-09T19:10:44.872Z,3.30
2023-05-09T19:13:12.799Z,2.92
2023-05-09T19:15:40.515Z,3.05
2023-05-09T19:18:07.098Z,2.83
2023-05-09T19:20:33.539Z,2.58
2023-05-09T19:22:59.976Z,2.83
2023-05-09T19:25:26.577Z,2.42
2023-05-09T19:27:54.065Z,2.95
2023-05-09T19:30:20.827Z,2.38
2023-05-09T19:32:47.332Z,2.75
2023-05-09T19:35:13.876Z,2.90
2023-05-09T19:37:40.744Z,2.80
2023-05-09T19:40:07.592Z,2.92
2023-05-09T19:42:34.322Z,2.90
2023-05-09T19:45:00.967Z,3.20
2023-05-09T19:47:27.804Z,3.25
2023-05-09T19:49:54.218Z,3.13
2023-05-09T19:52:21.054Z,3.58
2023-05-09T19:54:47.455Z,3.15
2023-05-09T19:57:13.869Z,3.03
2023-05-09T19:59:40.237Z,3.00
2023-05-09T20:02:06.923Z,2.80
2023-05-09T20:04:36.871Z,2.60
2023-05-09T20:07:04.414Z,2.67
2023-05-09T20:09:32.744Z,2.78
2023-05-09T20:12:01.517Z,3.00
2023-05-09T20:14:27.896Z,3.38
2023-05-09T20:16:56.715Z,3.53
2023-05-09T20:19:23.271Z,3.60
2023-05-09T20:21:49.999Z,4.13
2023-05-09T20:24:19.097Z,3.90
2023-05-09T20:26:45.529Z,4.18
2023-05-09T20:29:11.937Z,4.35
2023-05-09T20:31:38.445Z,4.53
2023-05-09T20:34:04.846Z,5.15
2023-05-09T20:36:31.306Z,4.90
2023-05-09T20:38:57.799Z,5.22
2023-05-09T20:41:24.302Z,5.30
2023-05-09T20:43:50.813Z,6.53
2023-05-09T20:46:17.403Z,5.93
2023-05-09T20:48:44.272Z,6.35
2023-05-09T20:51:10.744Z,6.18
2023-05-09T20:53:37.712Z,7.30
2023-05-09T20:56:04.917Z,6.22
2023-05-09T20:58:32.719Z,7.22
2023-05-09T21:00:59.424Z,7.07
2023-05-09T21:03:26.016Z,6.70
2023-05-09T21:05:52.482Z,7.50
2023-05-09T21:08:19.234Z,6.32
2023-05-09T21:10:45.642Z,7.03
2023-05-09T21:13:12.119Z,6.45
2023-05-09T21:15:38.579Z,7.45
2023-05-09T21:18:05.065Z,8.52
2023-05-09T21:20:31.501Z,7.75
2023-05-09T21:22:57.888Z,7.82
2023-05-09T21:25:24.394Z,7.25
2023-05-09T21:27:50.772Z,7.38
2023-05-09T21:30:17.380Z,7.53
2023-05-09T21:32:43.991Z,7.05
2023-05-09T21:35:12.650Z,6.93
2023-05-09T21:37:39.314Z,6.75
2023-05-09T21:40:06.491Z,6.53
2023-05-09T21:42:32.995Z,5.97
2023-05-09T21:44:59.369Z,7.13
2023-05-09T21:47:26.058Z,6.22
2023-05-09T21:49:52.769Z,6.25
2023-05-09T21:52:19.387Z,6.30
2023-05-09T21:54:45.779Z,6.63
2023-05-09T21:57:12.151Z,6.22
2023-05-09T21:59:38.512Z,7.28
2023-05-09T22:02:05.267Z,6.68
2023-05-09T22:04:31.686Z,6.65
2023-05-09T22:06:58.077Z,6.90
2023-05-09T22:09:24.503Z,7.05
2023-05-09T22:11:52.720Z,7.30
2023-05-09T22:14:19.071Z,7.30
2023-05-09T22:16:45.650Z,8.23
2023-05-09T22:19:12.106Z,8.40
2023-05-09T22:21:38.550Z,8.70
2023-05-09T22:24:05.479Z,8.27
2023-05-09T22:26:33.026Z,8.48
2023-05-09T22:28:59.492Z,8.63
2023-05-09T22:31:26.186Z,8.70
2023-05-09T22:33:52.765Z,9.63
2023-05-09T22:36:19.660Z,9.10
2023-05-09T22:38:52.238Z,10.32
2023-05-09T22:41:18.867Z,9.98
2023-05-09T22:43:45.251Z,9.73
2023-05-09T22:46:11.935Z,10.43
2023-05-09T22:48:38.371Z,10.43
2023-05-09T22:51:04.845Z,11.20
2023-05-09T22:53:31.277Z,12.32
2023-05-09T22:55:57.813Z,11.23
2023-05-09T22:58:24.218Z,11.18
2023-05-09T23:00:50.842Z,11.35
2023-05-09T23:03:18.476Z,9.95
2023-05-09T23:05:44.920Z,11.93
2023-05-09T23:08:11.339Z,10.63
2023-05-09T23:10:37.879Z,14.32
2023-05-09T23:13:04.765Z,13.77
2023-05-09T23:15:31.214Z,14.18
2023-05-09T23:17:57.629Z,16.08
2023-05-09T23:20:24.054Z,16.38
2023-05-09T23:22:50.484Z,18.08
2023-05-09T23:25:16.865Z,18.45
2023-05-09T23:27:44.494Z,19.33
2023-05-09T23:30:11.275Z,18.50
2023-05-09T23:32:37.761Z,20.90
2023-05-09T23:35:04.742Z,20.70
2023-05-09T23:37:31.198Z,20.70
2023-05-09T23:39:58.168Z,21.15
2023-05-09T23:42:24.603Z,20.92
2023-05-09T23:44:51.234Z,20.60
2023-05-09T23:47:17.580Z,21.10
2023-05-09T23:49:43.937Z,19.40
2023-05-09T23:52:10.287Z,22.23
2023-05-09T23:54:37.289Z,20.65
2023-05-09T23:57:04.037Z,21.08
2023-05-09T23:59:30.443Z,22.35
